Time;durP1;ratioP1;P1;durP2;ratioP2;P2;SDS_P1;SDS_P2;PMS_P1;PMS_P2;Temp;Humidity;BMP_temperature;BMP_pressure;BME280_temperature;BME280_humidity;BME280_pressure;Samples;Min_cycle;Max_cycle;Signal;HPM_P1;HPM_P2
2022/06/09 00:00:50;;;;;;;3.58;1.95;;;;;;;15.53;100.00;99755.38;5048185;28;20508;-71
2022/06/09 00:03:22;;;;;;;2.67;1.88;;;;;;;15.46;100.00;99751.47;5048790;28;20144;-71
2022/06/09 00:05:50;;;;;;;2.65;1.90;;;;;;;15.49;100.00;99763.75;5035106;28;20048;-71
2022/06/09 00:08:18;;;;;;;2.97;1.88;;;;;;;15.42;100.00;99768.72;5060031;28;20059;-70
2022/06/09 00:10:54;;;;;;;3.20;2.08;;;;;;;15.33;100.00;99756.06;5054972;28;20049;-71
2022/06/09 00:13:21;;;;;;;2.42;1.88;;;;;;;15.21;100.00;99743.66;5057947;28;20041;-71
2022/06/09 00:15:48;;;;;;;2.00;1.80;;;;;;;15.28;100.00;99768.88;5054735;28;20045;-70
2022/06/09 00:18:15;;;;;;;4.20;1.90;;;;;;;15.25;100.00;99763.81;5046715;28;20057;-70
2022/06/09 00:20:42;;;;;;;3.60;2.20;;;;;;;15.09;100.00;99748.97;5047663;28;20077;-70
2022/06/09 00:23:10;;;;;;;2.67;1.77;;;;;;;15.19;100.00;99773.13;5032107;28;20155;-70
2022/06/09 00:25:37;;;;;;;3.28;1.80;;;;;;;15.15;100.00;99765.47;5049541;28;20098;-69
2022/06/09 00:28:04;;;;;;;2.85;1.85;;;;;;;15.18;100.00;99770.56;5059462;28;20056;-71
2022/06/09 00:30:30;;;;;;;1.90;1.50;;;;;;;15.21;100.00;99775.69;5048548;28;20049;-70
2022/06/09 00:32:57;;;;;;;4.35;1.80;;;;;;;15.20;100.00;99787.31;5060387;28;20113;-70
2022/06/09 00:35:24;;;;;;;3.20;1.88;;;;;;;15.19;100.00;99788.28;5049631;28;20056;-70
2022/06/09 00:37:50;;;;;;;3.75;1.90;;;;;;;15.15;100.00;99792.13;5054319;28;20766;-70
2022/06/09 00:40:18;;;;;;;3.17;1.90;;;;;;;15.04;100.00;99791.13;5049090;28;20049;-71
2022/06/09 00:42:44;;;;;;;3.83;1.88;;;;;;;15.03;100.00;99800.09;5055617;28;20526;-70
2022/06/09 00:45:52;;;;;;;3.70;1.80;;;;;;;15.00;100.00;99802.97;5051316;28;20036;-70
2022/06/09 00:48:28;;;;;;;3.30;1.85;;;;;;;14.99;100.00;99806.63;5042672;28;20075;-69
2022/06/09 00:51:05;;;;;;;3.35;2.08;;;;;;;14.96;100.00;99808.66;5047372;28;20135;-70
2022/06/09 00:53:36;;;;;;;2.72;2.00;;;;;;;14.94;100.00;99803.47;5035912;28;20053;-72
2022/06/09 00:56:03;;;;;;;3.15;2.10;;;;;;;14.96;100.00;99809.50;5051431;28;20148;-70
2022/06/09 00:58:34;;;;;;;3.40;2.00;;;;;;;15.00;100.00;99799.47;5050805;28;20041;-70
2022/06/09 01:01:05;;;;;;;2.67;1.73;;;;;;;14.99;100.00;99806.63;5042139;28;20048;-70
2022/06/09 01:03:42;;;;;;;5.57;2.10;;;;;;;14.96;100.00;99801.50;5061819;28;20040;-70
2022/06/09 01:06:14;;;;;;;2.88;2.00;;;;;;;14.78;100.00;99789.56;5031296;28;20433;-70
2022/06/09 01:08:47;;;;;;;3.83;2.20;;;;;;;14.77;100.00;99795.84;4999886;28;20046;-70
2022/06/09 01:11:14;;;;;;;3.17;2.05;;;;;;;14.78;100.00;99816.22;5007092;28;20057;-70
2022/06/09 01:13:42;;;;;;;3.40;2.20;;;;;;;14.74;100.00;99809.41;5001014;28;20064;-69
2022/06/09 01:16:36;;;;;;;3.13;2.42;;;;;;;14.75;100.00;99816.44;5005495;28;20607;-70
2022/06/09 01:19:31;;;;;;;4.30;2.50;;;;;;;14.71;100.00;99814.94;4997774;28;20072;-70
2022/06/09 01:22:29;;;;;;;5.28;2.40;;;;;;;14.65;100.00;99812.72;5015627;28;20057;-70
2022/06/09 01:25:34;;;;;;;4.00;2.10;;;;;;;14.62;100.00;99820.97;4986837;28;20131;-70
2022/06/09 01:28:35;;;;;;;4.10;2.10;;;;;;;14.59;100.00;99824.69;5007308;28;20069;-70
2022/06/09 01:31:14;;;;;;;3.45;2.20;;;;;;;14.54;100.00;99816.19;5007383;28;20057;-70
2022/06/09 01:33:58;;;;;;;2.50;2.13;;;;;;;14.50;100.00;99811.16;4996567;28;20049;-69
2022/06/09 01:36:47;;;;;;;3.30;2.50;;;;;;;14.54;100.00;99818.00;5007458;28;20046;-69
2022/06/09 01:39:13;;;;;;;3.95;1.95;;;;;;;14.46;100.00;99788.41;5013270;28;20112;-69
2022/06/09 01:41:47;;;;;;;4.95;2.80;;;;;;;14.45;100.00;99776.03;5002300;28;20045;-69
2022/06/09 01:44:18;;;;;;;3.90;2.38;;;;;;;14.60;100.00;99814.88;5005683;28;20046;-69
2022/06/09 01:46:46;;;;;;;;;;;;;;;14.60;100.00;99817.56;5013511;28;20054;-70
2022/06/09 01:49:26;;;;;;;4.03;2.50;;;;;;;14.61;100.00;99819.25;5009757;28;20280;-68
2022/06/09 01:51:56;;;;;;;5.93;2.60;;;;;;;14.63;100.00;99812.00;5006426;28;20050;-69
2022/06/09 01:54:34;;;;;;;4.93;2.63;;;;;;;14.60;100.00;99815.75;5007079;28;22144;-69
2022/06/09 01:57:10;;;;;;;3.20;2.88;;;;;;;14.57;100.00;99817.78;5008256;28;20378;-70
2022/06/09 01:59:46;;;;;;;4.15;2.65;;;;;;;14.51;100.00;99828.84;5000115;28;20806;-69
2022/06/09 02:02:20;;;;;;;7.32;2.60;;;;;;;14.57;100.00;99837.28;5005609;28;20506;-70
2022/06/09 02:04:57;;;;;;;5.03;3.00;;;;;;;14.57;100.00;99834.59;5001274;28;20490;-69
2022/06/09 02:07:25;;;;;;;6.18;2.38;;;;;;;14.57;100.00;99834.59;5026694;28;20061;-70
2022/06/09 02:09:52;;;;;;;2.70;2.50;;;;;;;14.53;100.00;99833.13;5038038;28;20076;-70
2022/06/09 02:12:24;;;;;;;4.43;2.45;;;;;;;14.52;100.00;99826.09;5026992;28;20144;-69
2022/06/09 02:14:54;;;;;;;7.85;2.38;;;;;;;14.52;100.00;99826.09;5037220;28;20132;-70
2022/06/09 02:17:21;;;;;;;;;;;;;;;14.48;100.00;99831.78;5027647;28;20542;-70
2022/06/09 02:19:50;;;;;;;4.43;2.55;;;;;;;14.46;100.00;99825.69;5037943;28;19975;-70
2022/06/09 02:22:16;;;;;;;4.07;2.78;;;;;;;14.32;100.00;99805.34;5035823;28;20049;-71
2022/06/09 02:24:43;;;;;;;3.97;2.65;;;;;;;14.44;100.00;99833.78;5026814;28;20046;-71
2022/06/09 02:27:10;;;;;;;5.07;3.22;;;;;;;14.39;100.00;99835.91;5034970;28;20148;-69
2022/06/09 02:29:37;;;;;;;4.38;2.60;;;;;;;14.17;100.00;99793.09;5035417;28;20053;-69
2022/06/09 02:32:04;;;;;;;4.97;2.90;;;;;;;14.39;100.00;99835.91;5036559;28;20053;-70
2022/06/09 02:34:31;;;;;;;5.55;2.90;;;;;;;14.35;100.00;99837.91;5031429;28;20501;-69
2022/06/09 02:36:58;;;;;;;3.70;3.00;;;;;;;14.24;100.00;99819.19;5033126;28;20076;-69
2022/06/09 02:39:24;;;;;;;5.55;3.22;;;;;;;14.32;100.00;99824.81;5030745;28;20102;-69
2022/06/09 02:41:51;;;;;;;6.07;2.70;;;;;;;14.39;100.00;99846.56;5037068;28;20052;-69
2022/06/09 02:44:17;;;;;;;5.85;2.88;;;;;;;14.34;100.00;99843.34;5028470;28;20111;-70
2022/06/09 02:46:44;;;;;;;5.38;3.00;;;;;;;14.28;100.00;99849.13;5036570;28;20045;-70
2022/06/09 02:49:11;;;;;;;6.15;3.08;;;;;;;14.24;100.00;99840.50;5027483;28;20131;-69
2022/06/09 02:51:40;;;;;;;5.88;3.22;;;;;;;14.19;100.00;99847.09;5029325;28;20041;-70
2022/06/09 02:54:10;;;;;;;3.63;3.33;;;;;;;14.11;100.00;99846.81;5025204;28;20626;-69
2022/06/09 02:56:38;;;;;;;5.05;3.00;;;;;;;13.94;100.00;99824.88;5035896;28;20452;-69
2022/06/09 02:59:04;;;;;;;3.50;3.00;;;;;;;13.92;100.00;99833.91;5029444;28;20073;-69
2022/06/09 03:01:31;;;;;;;7.85;3.03;;;;;;;14.01;100.00;99841.25;5029845;28;20045;-69
2022/06/09 03:03:58;;;;;;;5.47;3.05;;;;;;;14.10;100.00;99853.09;5022652;28;20161;-69
2022/06/09 03:06:25;;;;;;;4.47;2.95;;;;;;;14.08;100.00;99860.31;5024750;28;20563;-69
2022/06/09 03:08:52;;;;;;;7.38;3.03;;;;;;;14.07;100.00;99856.81;5033260;28;20553;-69
2022/06/09 03:11:18;;;;;;;5.65;3.13;;;;;;;13.75;100.00;99796.97;5033123;28;20131;-68
2022/06/09 03:13:46;;;;;;;4.75;3.00;;;;;;;14.12;100.00;99853.84;5025826;28;20583;-70
2022/06/09 03:16:15;;;;;;;4.63;3.22;;;;;;;14.09;100.00;99856.72;5022260;28;20615;-70
2022/06/09 03:18:43;;;;;;;4.82;3.00;;;;;;;14.08;100.00;99863.00;5025887;28;20489;-70
2022/06/09 03:21:12;;;;;;;4.47;3.03;;;;;;;14.05;100.00;99864.91;5023177;28;20080;-69
2022/06/09 03:23:39;;;;;;;6.00;3.50;;;;;;;13.93;100.00;99859.59;5025934;28;20555;-69
2022/06/09 03:26:07;;;;;;;3.70;2.92;;;;;;;13.78;100.00;99842.00;5022559;28;20153;-70
2022/06/09 03:28:35;;;;;;;6.60;3.67;;;;;;;13.90;100.00;99868.63;5023224;28;20052;-69
2022/06/09 03:31:01;;;;;;;6.00;3.45;;;;;;;13.94;100.00;99872.78;5028367;28;20051;-69
2022/06/09 03:33:28;;;;;;;7.18;3.42;;;;;;;13.99;100.00;99875.13;5022785;28;20049;-69
2022/06/09 03:35:55;;;;;;;5.20;2.80;;;;;;;14.01;100.00;99886.50;5029239;28;20528;-69
2022/06/09 03:38:21;;;;;;;4.85;3.15;;;;;;;13.95;100.00;99889.63;5029996;28;20107;-69
2022/06/09 03:40:48;;;;;;;5.53;3.35;;;;;;;13.84;100.00;99862.91;5030392;28;20050;-69
2022/06/09 03:43:15;;;;;;;7.55;3.70;;;;;;;13.99;100.00;99877.81;5026767;28;20064;-68
2022/06/09 03:45:42;;;;;;;4.40;3.10;;;;;;;14.01;100.00;99887.38;5025337;28;20107;-70
2022/06/09 03:48:09;;;;;;;4.20;2.90;;;;;;;13.94;100.00;99866.63;5024566;28;20383;-70
2022/06/09 03:50:35;;;;;;;5.30;2.92;;;;;;;13.95;100.00;99873.63;5031466;28;20061;-70
2022/06/09 03:53:02;;;;;;;5.90;3.20;;;;;;;13.99;100.00;99888.44;5001314;28;20107;-71
2022/06/09 03:55:30;;;;;;;5.40;3.50;;;;;;;13.93;100.00;99884.38;5025054;28;21278;-70
2022/06/09 03:57:56;;;;;;;6.03;3.65;;;;;;;13.98;100.00;99894.72;5035330;28;20049;-68
2022/06/09 04:00:28;;;;;;;5.43;3.35;;;;;;;13.98;100.00;99892.06;5025500;28;20057;-68
2022/06/09 04:02:55;;;;;;;5.70;3.10;;;;;;;13.95;100.00;99890.47;5034176;28;20465;-68
2022/06/09 04:05:22;;;;;;;4.15;3.03;;;;;;;13.90;100.00;99891.72;5023136;28;20116;-68
2022/06/09 04:07:49;;;;;;;5.45;3.63;;;;;;;13.84;100.00;99897.50;5022633;28;20108;-69
2022/06/09 04:10:23;;;;;;;5.60;3.28;;;;;;;13.77;100.00;99896.19;5032706;28;20489;-68
2022/06/09 04:12:49;;;;;;;5.25;3.67;;;;;;;13.60;100.00;99882.22;5026892;28;20147;-69
2022/06/09 04:15:17;;;;;;;5.32;3.65;;;;;;;13.71;100.00;99910.75;5024386;28;20049;-68
2022/06/09 04:17:45;;;;;;;7.18;3.80;;;;;;;13.74;100.00;99913.22;5035672;28;20069;-68
2022/06/09 04:20:17;;;;;;;7.75;3.50;;;;;;;13.75;100.00;99909.59;5032006;28;20038;-68
2022/06/09 04:22:43;;;;;;;6.72;3.65;;;;;;;13.83;100.00;99915.28;5039524;28;20396;-72
2022/06/09 04:25:14;;;;;;;5.35;3.60;;;;;;;13.87;100.00;99913.22;5027386;28;20111;-69
2022/06/09 04:27:41;;;;;;;7.90;3.25;;;;;;;13.91;100.00;99918.25;5023667;28;20145;-68
2022/06/09 04:30:09;;;;;;;7.22;3.20;;;;;;;14.01;100.00;99918.44;5024758;28;20501;-68
2022/06/09 04:32:35;;;;;;;8.20;3.58;;;;;;;14.03;100.00;99925.38;5037433;28;20083;-68
2022/06/09 04:35:03;;;;;;;6.22;3.72;;;;;;;14.09;100.00;99921.47;5026528;28;20076;-69
2022/06/09 04:40:15;;;;;;;4.97;2.85;;;;;;;14.19;100.00;99919.00;5028426;28;20066;-70
2022/06/09 04:42:42;;;;;;;4.55;2.90;;;;;;;14.25;100.00;99915.91;5031419;28;20048;-69
2022/06/09 04:45:09;;;;;;;7.43;3.20;;;;;;;14.27;100.00;99922.84;5029005;28;20092;-69
2022/06/09 04:47:36;;;;;;;7.70;2.75;;;;;;;14.22;100.00;99932.09;5029063;28;20041;-69
2022/06/09 04:50:04;;;;;;;5.65;3.45;;;;;;;14.10;100.00;99925.81;5035045;28;20135;-68
2022/06/09 04:52:31;;;;;;;4.80;3.30;;;;;;;14.05;100.00;99931.47;5028095;28;20536;-68
2022/06/09 04:54:58;;;;;;;7.38;3.15;;;;;;;14.09;100.00;99929.44;5027277;28;20152;-69
2022/06/09 04:57:25;;;;;;;5.18;3.03;;;;;;;14.24;100.00;99922.22;5044402;28;20057;-72
2022/06/09 04:59:52;;;;;;;6.20;3.13;;;;;;;14.36;100.00;99929.34;5028054;28;20057;-69
2022/06/09 05:02:19;;;;;;;5.68;2.80;;;;;;;14.42;100.00;99930.75;5033193;28;20088;-69
2022/06/09 05:04:46;;;;;;;5.05;2.95;;;;;;;14.36;100.00;99910.69;5028822;28;20138;-69
2022/06/09 05:07:14;;;;;;;10.25;3.25;;;;;;;14.53;100.00;99944.16;5035661;28;20053;-70
2022/06/09 05:09:41;;;;;;;7.85;3.90;;;;;;;14.62;99.84;99951.53;5030220;28;20115;-69
2022/06/09 05:12:07;;;;;;;5.45;2.78;;;;;;;14.61;98.86;99952.50;5028787;28;20108;-68
2022/06/09 05:14:34;;;;;;;7.00;2.97;;;;;;;14.45;99.32;99931.41;5026655;28;20073;-69
2022/06/09 05:17:00;;;;;;;6.22;3.05;;;;;;;14.63;99.55;99956.75;5033528;28;20048;-69
2022/06/09 05:19:27;;;;;;;5.85;3.13;;;;;;;14.61;98.82;99953.34;5029380;28;20045;-68
2022/06/09 05:21:54;;;;;;;5.32;3.05;;;;;;;14.70;98.31;99970.47;5033399;28;20114;-68
2022/06/09 05:24:20;;;;;;;10.52;4.00;;;;;;;14.63;97.09;99969.22;5029680;28;20564;-68
2022/06/09 05:26:47;;;;;;;8.65;3.28;;;;;;;14.52;98.00;99959.31;5026685;28;20072;-69
2022/06/09 05:29:14;;;;;;;6.45;3.63;;;;;;;14.54;97.83;99984.03;5028605;28;20043;-69
2022/06/09 05:31:40;;;;;;;10.15;3.83;;;;;;;14.47;99.07;99985.44;5024727;28;20049;-69
2022/06/09 05:34:08;;;;;;;9.98;4.30;;;;;;;14.58;100.00;99990.00;5021759;28;20061;-68
2022/06/09 05:36:35;;;;;;;7.20;3.80;;;;;;;14.70;99.55;99981.16;5031710;28;20061;-69
2022/06/09 05:44:52;;;;;;;8.60;3.50;;;;;;;14.95;95.90;100002.41;5024389;28;20041;-69
2022/06/09 05:47:21;;;;;;;6.93;3.00;;;;;;;15.00;94.73;100010.97;5023739;28;20136;-69
2022/06/09 05:49:48;;;;;;;8.43;3.70;;;;;;;15.06;94.22;100017.69;5030034;28;20433;-69
2022/06/09 05:52:18;;;;;;;10.95;4.00;;;;;;;15.17;93.85;100019.56;5026910;28;20073;-69
2022/06/09 05:54:44;;;;;;;6.65;3.10;;;;;;;15.28;92.20;100016.97;5024372;28;20060;-69
2022/06/09 05:57:11;;;;;;;9.70;4.00;;;;;;;15.34;91.52;100020.06;5028347;28;20049;-69
2022/06/09 05:59:38;;;;;;;6.57;2.80;;;;;;;15.45;91.79;100009.44;5026340;28;20388;-69
2022/06/09 06:02:05;;;;;;;7.57;2.67;;;;;;;15.59;90.39;100029.81;5027042;28;20065;-70
2022/06/09 06:04:33;;;;;;;6.78;2.60;;;;;;;15.70;87.67;100029.91;5037465;28;20045;-69
2022/06/09 06:06:59;;;;;;;11.43;2.72;;;;;;;15.81;86.95;100033.56;5025802;28;20144;-68
2022/06/09 06:09:26;;;;;;;10.73;3.00;;;;;;;15.82;87.35;100032.63;5025525;28;20061;-69
2022/06/09 06:11:53;;;;;;;8.25;2.58;;;;;;;15.99;86.02;100035.72;5026032;28;20055;-69
2022/06/09 06:14:23;;;;;;;8.43;2.60;;;;;;;16.08;84.98;100031.50;5023178;28;20084;-68
2022/06/09 06:16:50;;;;;;;10.65;2.40;;;;;;;16.37;83.18;100040.81;5026860;28;20122;-69
2022/06/09 06:19:19;;;;;;;4.93;1.85;;;;;;;16.60;82.54;100033.72;5025912;28;20049;-68
2022/06/09 06:21:47;;;;;;;7.90;1.95;;;;;;;16.92;78.66;100052.63;5023991;28;20091;-70
2022/06/09 06:24:14;;;;;;;8.20;2.03;;;;;;;17.10;79.74;100045.84;5032756;28;20076;-68
2022/06/09 06:26:42;;;;;;;7.03;2.40;;;;;;;17.53;77.27;100048.56;5024292;28;20098;-68
2022/06/09 06:29:17;;;;;;;7.80;2.40;;;;;;;17.88;75.53;100040.38;5024334;28;20544;-67
2022/06/09 06:31:44;;;;;;;7.82;1.90;;;;;;;18.20;75.01;100045.72;5030296;28;20056;-68
2022/06/09 06:34:11;;;;;;;7.78;1.92;;;;;;;18.34;71.69;100049.91;5030552;28;20264;-68
2022/06/09 06:36:38;;;;;;;5.13;1.95;;;;;;;18.45;72.21;100039.13;5026811;28;20501;-68
2022/06/09 06:39:05;;;;;;;7.60;1.80;;;;;;;18.79;68.87;100055.03;5029272;28;20184;-67
2022/06/09 06:41:32;;;;;;;5.93;1.85;;;;;;;18.80;69.21;100046.84;5023951;28;20129;-69
2022/06/09 06:43:58;;;;;;;5.82;1.50;;;;;;;19.35;67.10;100058.13;5030793;28;20545;-68
2022/06/09 06:46:27;;;;;;;7.10;1.95;;;;;;;19.81;64.72;100045.97;5029055;28;20050;-68
2022/06/09 06:48:55;;;;;;;3.63;1.30;;;;;;;20.38;61.00;100063.13;5022962;28;20050;-69
2022/06/09 06:51:23;;;;;;;4.03;1.80;;;;;;;20.12;61.58;100046.72;5037382;28;20123;-68
2022/06/09 06:53:50;;;;;;;7.32;1.80;;;;;;;20.29;64.75;100076.44;5026067;28;20100;-68
2022/06/09 06:56:16;;;;;;;9.18;1.90;;;;;;;20.57;61.24;100058.59;5023886;28;20061;-67
2022/06/09 06:58:43;;;;;;;5.20;1.67;;;;;;;21.07;59.56;100079.03;5024863;28;20123;-68
2022/06/09 07:01:10;;;;;;;4.90;1.70;;;;;;;20.77;57.84;100093.56;5007066;28;20072;-69
2022/06/09 07:03:37;;;;;;;4.13;1.40;;;;;;;19.99;60.87;100083.78;5025239;28;20065;-69
2022/06/09 07:06:05;;;;;;;7.55;2.30;;;;;;;19.52;62.33;100086.19;5030547;28;20048;-68
2022/06/09 07:08:32;;;;;;;4.75;1.70;;;;;;;19.33;62.85;100083.41;5003537;28;20045;-68
2022/06/09 07:10:59;;;;;;;6.28;2.17;;;;;;;19.27;64.01;100092.84;5023774;28;20099;-68
2022/06/09 07:13:26;;;;;;;11.75;2.28;;;;;;;18.93;66.27;100092.25;5024579;28;20701;-67
2022/06/09 07:15:53;;;;;;;7.25;1.98;;;;;;;18.60;68.10;100096.00;5023148;28;20567;-67
2022/06/09 07:18:27;;;;;;;5.80;2.38;;;;;;;18.20;68.99;100101.16;5025800;28;20045;-67
2022/06/09 07:20:54;;;;;;;5.03;2.10;;;;;;;17.97;71.24;100113.75;5026461;28;20042;-67
2022/06/09 07:23:22;;;;;;;8.77;2.30;;;;;;;17.74;71.51;100112.97;5027595;28;20394;-67
2022/06/09 07:25:49;;;;;;;6.15;2.10;;;;;;;17.36;73.23;100118.69;5021518;28;20072;-67
2022/06/09 07:28:16;;;;;;;5.95;1.52;;;;;;;16.77;74.80;100099.28;5027114;28;20064;-67
2022/06/09 07:30:44;;;;;;;10.10;2.65;;;;;;;16.67;75.96;100128.56;5025678;28;20046;-67
2022/06/09 07:33:12;;;;;;;10.23;2.20;;;;;;;16.55;75.62;100124.09;5022681;28;20506;-67
2022/06/09 07:35:40;;;;;;;7.78;1.75;;;;;;;16.57;75.44;100122.16;5028409;28;20049;-68
2022/06/09 07:38:10;;;;;;;7.63;2.42;;;;;;;16.62;76.21;100124.50;5025236;28;20052;-68
2022/06/09 07:40:40;;;;;;;7.75;2.60;;;;;;;16.71;76.34;100129.16;5019966;28;20428;-68
2022/06/09 07:43:07;;;;;;;8.23;1.98;;;;;;;16.72;75.88;100123.69;5027936;28;20045;-67
2022/06/09 07:45:36;;;;;;;8.25;2.20;;;;;;;16.83;76.66;100130.94;5027216;28;20048;-68
2022/06/09 07:48:04;;;;;;;9.13;2.58;;;;;;;17.15;75.26;100129.28;5020233;28;20060;-68
2022/06/09 07:50:32;;;;;;;13.93;2.35;;;;;;;17.80;73.39;100131.19;5025098;28;20063;-68
2022/06/09 07:52:58;;;;;;;10.38;2.45;;;;;;;18.20;70.49;100125.28;5033202;28;20060;-67
2022/06/09 07:55:26;;;;;;;8.80;2.08;;;;;;;18.80;67.86;100130.03;5024086;28;20076;-67
2022/06/09 07:57:54;;;;;;;9.45;2.20;;;;;;;19.15;65.39;100132.38;5019118;28;20527;-68
2022/06/09 08:00:22;;;;;;;8.15;2.15;;;;;;;19.20;66.74;100130.09;5028337;28;20057;-68
2022/06/09 08:02:50;;;;;;;7.65;2.05;;;;;;;19.42;65.95;100133.63;5024122;28;20053;-68
2022/06/09 08:05:20;;;;;;;8.02;1.77;;;;;;;19.42;64.61;100139.84;5036019;28;20046;-67
2022/06/09 08:07:47;;;;;;;6.60;1.90;;;;;;;19.23;64.52;100142.41;5022975;28;20111;-67
2022/06/09 08:10:18;;;;;;;5.72;1.98;;;;;;;18.55;68.45;100147.31;5030919;28;20602;-66
2022/06/09 08:12:48;;;;;;;6.35;1.85;;;;;;;17.99;74.16;100159.19;5030196;28;20053;-67
2022/06/09 08:15:16;;;;;;;9.90;3.17;;;;;;;16.99;82.35;100139.47;5015014;28;20045;-70
2022/06/09 08:17:43;;;;;;;9.27;2.78;;;;;;;16.35;89.35;100160.38;5026187;28;20529;-70
2022/06/09 08:20:13;;;;;;;9.70;3.10;;;;;;;15.87;93.23;100167.50;5030014;28;20065;-70
2022/06/09 08:23:10;;;;;;;8.80;2.85;;;;;;;15.48;97.58;100173.81;5023466;28;20202;-70
2022/06/09 08:25:39;;;;;;;12.05;3.55;;;;;;;15.34;100.00;100172.13;5030141;28;20048;-71
2022/06/09 08:28:07;;;;;;;13.00;4.32;;;;;;;15.28;100.00;100169.03;5035312;28;20049;-70
2022/06/09 08:30:35;;;;;;;8.13;3.83;;;;;;;15.21;100.00;100152.63;5027716;28;20501;-70
2022/06/09 08:33:02;;;;;;;9.18;3.60;;;;;;;15.31;100.00;100166.16;5029810;28;20037;-70
2022/06/09 08:35:31;;;;;;;7.30;3.15;;;;;;;15.25;100.00;100166.59;5037786;28;20057;-72
2022/06/09 08:37:58;;;;;;;6.28;2.33;;;;;;;15.11;100.00;100140.03;5028106;28;20042;-69
2022/06/09 08:40:43;;;;;;;6.85;3.22;;;;;;;15.34;99.97;100166.78;5022032;28;20049;-69
2022/06/09 08:43:35;;;;;;;8.05;3.35;;;;;;;15.47;100.00;100174.78;5026437;28;20053;-72
2022/06/09 08:46:16;;;;;;;5.85;2.63;;;;;;;15.54;97.84;100178.75;5030093;28;20049;-71
2022/06/09 08:48:46;;;;;;;9.63;3.10;;;;;;;15.82;98.59;100182.13;5023619;28;20045;-72
2022/06/09 08:51:26;;;;;;;7.17;3.50;;;;;;;16.14;100.00;100180.66;5025118;28;20132;-70
2022/06/09 08:54:04;;;;;;;11.60;3.67;;;;;;;16.66;100.00;100180.34;5028396;28;20080;-70
2022/06/09 08:56:31;;;;;;;9.27;2.55;;;;;;;16.95;91.86;100177.25;5026225;28;20050;-70
2022/06/09 08:59:10;;;;;;;9.90;2.38;;;;;;;17.35;90.90;100188.38;5032538;28;20049;-71
2022/06/09 09:01:52;;;;;;;2.85;1.70;;;;;;;17.85;81.78;100187.09;5028009;28;20076;-70
2022/06/09 09:04:37;;;;;;;6.43;1.70;;;;;;;18.16;76.02;100189.00;5022593;28;20060;-71
2022/06/09 09:07:11;;;;;;;4.97;1.70;;;;;;;18.31;71.96;100194.06;5025812;28;20057;-71
2022/06/09 09:09:38;;;;;;;4.05;1.70;;;;;;;18.25;72.74;100199.94;5027839;28;20048;-71
2022/06/09 09:12:15;;;;;;;6.90;1.95;;;;;;;18.38;74.00;100201.50;5025480;28;20049;-69
2022/06/09 09:15:03;;;;;;;3.13;2.03;;;;;;;18.72;72.02;100194.22;5031752;28;20148;-68
2022/06/09 09:17:38;;;;;;;7.00;1.60;;;;;;;18.97;68.20;100203.72;5024533;28;20054;-69
2022/06/09 09:20:29;;;;;;;3.95;1.55;;;;;;;19.04;67.03;100194.19;5027033;28;20329;-69
2022/06/09 09:23:13;;;;;;;4.40;1.65;;;;;;;19.18;64.38;100207.25;5048117;28;20106;-69
2022/06/09 09:25:57;;;;;;;3.42;1.40;;;;;;;19.30;65.30;100205.34;5043364;28;20048;-69
2022/06/09 09:28:35;;;;;;;3.90;1.50;;;;;;;19.64;62.91;100207.81;5039482;28;20049;-69
2022/06/09 09:31:45;;;;;;;3.95;1.30;;;;;;;19.64;64.02;100202.44;5047559;28;20394;-69
2022/06/09 09:34:18;;;;;;;3.10;1.13;;;;;;;18.90;59.71;100200.69;4968663;28;20574;-68
2022/06/09 09:36:48;;;;;;;5.45;2.40;;;;;;;18.90;65.00;100210.56;4969172;28;20061;-69
2022/06/09 09:39:17;;;;;;;;;;;;;;;18.91;63.15;100215.81;5010039;28;20123;-69
2022/06/09 09:41:44;;;;;;;7.18;1.45;;;;;;;18.81;65.75;100204.16;5053229;28;19924;-70
2022/06/09 09:44:22;;;;;;;4.05;1.55;;;;;;;18.78;65.28;100206.25;5042135;28;20048;-70
2022/06/09 09:46:58;;;;;;;4.97;1.33;;;;;;;19.11;63.06;100221.31;5041542;28;20072;-69
2022/06/09 09:49:43;;;;;;;6.47;1.60;;;;;;;19.24;61.82;100228.19;5024243;28;20640;-68
2022/06/09 09:52:36;;;;;;;3.67;1.50;;;;;;;19.08;63.83;100214.38;5043256;28;20045;-69
2022/06/09 09:55:20;;;;;;;3.13;1.38;;;;;;;18.96;64.24;100231.53;5044263;28;20052;-69
2022/06/09 09:57:47;;;;;;;5.88;1.77;;;;;;;18.75;64.06;100214.53;5050035;28;20403;-69
2022/06/09 10:00:34;;;;;;;3.78;1.38;;;;;;;18.65;62.45;100237.75;5042768;28;20037;-70
2022/06/09 10:09:51;;;;;;;6.13;1.55;;;;;;;18.71;64.91;100250.66;5049921;28;19943;-68
2022/06/09 10:12:29;;;;;;;2.95;1.40;;;;;;;19.11;63.05;100249.00;5043030;28;20442;-69
2022/06/09 10:15:10;;;;;;;7.90;2.30;;;;;;;19.35;64.01;100255.97;5043505;28;20091;-69
2022/06/09 10:17:51;;;;;;;5.68;1.73;;;;;;;19.31;64.45;100260.75;5045169;28;20408;-69
2022/06/09 10:20:43;;;;;;;5.72;1.95;;;;;;;19.01;65.45;100248.09;5049747;28;20056;-69
2022/06/09 10:23:09;;;;;;;7.57;2.17;;;;;;;18.78;67.57;100241.97;5045245;28;20052;-69
2022/06/09 10:25:47;;;;;;;7.35;2.20;;;;;;;18.72;67.69;100272.00;5045882;28;20144;-69
2022/06/09 10:28:32;;;;;;;4.72;1.80;;;;;;;18.71;66.73;100275.66;5047577;28;20079;-69
2022/06/09 10:31:12;;;;;;;3.58;1.60;;;;;;;18.97;63.44;100246.66;5043126;28;20080;-68
2022/06/09 10:34:11;;;;;;;5.55;1.95;;;;;;;19.32;61.70;100273.19;5043067;28;20544;-68
2022/06/09 10:36:55;;;;;;;5.57;1.90;;;;;;;19.15;61.66;100269.25;5050268;28;20803;-69
2022/06/09 10:39:57;;;;;;;5.93;1.63;;;;;;;19.58;61.01;100279.03;5043410;28;20509;-69
2022/06/09 10:43:09;;;;;;;5.32;1.65;;;;;;;19.85;59.48;100270.41;5002502;28;20140;-68
2022/06/09 10:45:45;;;;;;;4.45;1.63;;;;;;;19.78;58.73;100261.19;5003690;28;20045;-67
2022/06/09 10:57:27;;;;;;;3.40;2.17;;;;;;;19.48;59.63;100289.69;5050404;28;20811;-67
2022/06/09 11:00:08;;;;;;;4.28;1.55;;;;;;;19.39;59.58;100278.88;5027786;28;20128;-68
2022/06/09 11:02:35;;;;;;;8.15;2.10;;;;;;;19.36;60.16;100282.66;5044096;28;20056;-68
2022/06/09 11:05:04;;;;;;;4.28;2.00;;;;;;;19.32;61.07;100257.09;5045743;28;20045;-69
2022/06/09 11:07:49;;;;;;;5.13;1.65;;;;;;;19.71;60.77;100263.56;5043840;28;20045;-67
2022/06/09 11:10:33;;;;;;;4.72;1.98;;;;;;;20.22;58.34;100278.78;5044541;28;20567;-67
2022/06/09 11:13:22;;;;;;;3.63;2.00;;;;;;;20.78;58.90;100276.38;5042502;28;20053;-68
2022/06/09 11:16:35;;;;;;;3.95;1.88;;;;;;;21.19;56.10;100278.00;5050430;28;20045;-67
2022/06/09 11:19:43;;;;;;;6.72;2.10;;;;;;;20.53;56.78;100283.16;4959793;28;20081;-67
2022/06/09 11:22:37;;;;;;;4.80;1.98;;;;;;;20.13;59.41;100275.09;4962407;28;20121;-68
2022/06/09 11:25:42;;;;;;;6.80;2.20;;;;;;;20.01;59.90;100286.88;5034051;28;20044;-68
2022/06/09 11:28:38;;;;;;;5.25;2.03;;;;;;;19.75;61.18;100285.63;5045227;28;20173;-67
2022/06/09 11:31:37;;;;;;;6.75;2.35;;;;;;;19.40;63.10;100276.06;5048340;28;20100;-68
2022/06/09 11:34:03;;;;;;;6.13;2.33;;;;;;;19.37;63.12;100292.44;5034797;28;20448;-68
2022/06/09 11:37:01;;;;;;;4.10;2.40;;;;;;;19.54;63.27;100293.72;5051194;28;20052;-67
2022/06/09 11:39:30;;;;;;;5.78;2.00;;;;;;;19.39;60.89;100297.66;5046920;28;20065;-68
2022/06/09 11:42:03;;;;;;;4.70;2.20;;;;;;;19.09;62.05;100299.28;5042334;28;20130;-68
2022/06/09 11:44:36;;;;;;;4.25;2.22;;;;;;;19.13;62.08;100295.38;5045065;28;20688;-68
2022/06/09 11:47:16;;;;;;;6.97;2.22;;;;;;;18.95;61.20;100310.31;5045399;28;20076;-68
2022/06/09 11:49:49;;;;;;;6.05;2.03;;;;;;;18.88;62.97;100306.47;5037087;28;20100;-68
2022/06/09 11:52:20;;;;;;;7.82;2.17;;;;;;;18.84;62.96;100303.16;5045291;28;20466;-68
2022/06/09 11:54:53;;;;;;;6.88;2.08;;;;;;;18.70;62.69;100290.06;5048403;28;20400;-68
2022/06/09 11:57:44;;;;;;;12.88;2.28;;;;;;;18.86;62.70;100314.63;5043603;28;20049;-68
2022/06/09 12:00:19;;;;;;;10.35;2.60;;;;;;;18.85;61.92;100317.44;5035441;28;20348;-68
2022/06/09 12:03:09;;;;;;;6.30;1.95;;;;;;;18.95;62.33;100317.53;5049553;28;20400;-68
2022/06/09 12:05:59;;;;;;;;;;;;;;;18.97;62.41;100315.56;5044278;28;20436;-67
2022/06/09 12:08:42;;;;;;;5.50;2.55;;;;;;;18.98;63.37;100310.06;5041258;28;19921;-66
2022/06/09 12:11:11;;;;;;;7.35;2.85;;;;;;;19.15;63.91;100316.72;5046034;28;20098;-68
2022/06/09 12:14:02;;;;;;;7.22;2.55;;;;;;;19.26;64.82;100312.13;5042453;28;20045;-68
2022/06/09 12:16:40;;;;;;;12.13;3.05;;;;;;;19.32;63.77;100320.66;5021418;28;20052;-68